Time;durP1;ratioP1;P1;durP2;ratioP2;P2;SDS_P1;SDS_P2;PMS_P1;PMS_P2;Temp;Humidity;BMP_temperature;BMP_pressure;BME280_temperature;BME280_humidity;BME280_pressure;Samples;Min_cycle;Max_cycle;Signal;HPM_P1;HPM_P2
2024/02/03 00:00:08;;;;;;;;;;;;;;;;;;342976;28;1050;-79
2024/02/03 00:00:19;;;;;;;;;;;;;;;;;;342939;28;1014;-79
2024/02/03 00:00:29;;;;;;;;;;;;;;;;;;343092;28;1045;-79
2024/02/03 00:00:39;;;;;;;;;;;;;;;;;;344339;28;1236;-79
2024/02/03 00:00:50;;;;;;;;;;;;;;;;;;344280;28;1002;-80
2024/02/03 00:01:00;;;;;;;;;;;;;;;;;;342917;28;959;-80
2024/02/03 00:01:10;;;;;;;;;;;;;;;;;;342942;28;955;-79
2024/02/03 00:01:26;;;;;;;;;;;;;;;;;;341626;29;1286;-80
2024/02/03 00:01:37;;;;;;;;;;;;;;;;;;341529;29;1308;-79
2024/02/03 00:01:47;;;;;;;;;;;;;;;;;;340253;29;1268;-80
2024/02/03 00:01:57;;;;;;;;;;;;;;;;;;341465;29;1253;-79
2024/02/03 00:02:08;;;;;;;;;;;;;;;;;;341711;29;932;-80
2024/02/03 00:02:18;;;;;;;;;;;;;;;;;;342978;28;966;-79
2024/02/03 00:02:28;;;;;;;;;;;;;;;;;;342978;28;963;-80
2024/02/03 00:02:39;;;;;;;;;;;;;;;;;;341629;29;956;-79
2024/02/03 00:02:49;;;;;;;;;;;;;;;;;;341566;29;1577;-79
2024/02/03 00:02:59;;;;;;;;;;;;;;;;;;342884;28;1284;-80
2024/02/03 00:03:09;;;;;;;;;;;;;;;;;;342871;28;1277;-79
2024/02/03 00:03:19;;;;;;;;;;;;;;;;;;342968;28;967;-80
2024/02/03 00:03:30;;;;;;;;;;;;;;;;;;341653;28;955;-79
2024/02/03 00:03:41;;;;;;;;;;;;;;;;;;340649;29;1003;-79
2024/02/03 00:03:51;;;;;;;;;;;;;;;;;;342869;28;1206;-79
2024/02/03 00:04:01;;;;;;;;;;;;;;;;;;344144;28;1416;-79
2024/02/03 00:04:11;;;;;;;;;;;;;;;;;;344255;28;1923;-79
2024/02/03 00:04:22;;;;;;;;;;;;;;;;;;344255;28;1192;-79
2024/02/03 00:04:33;;;;;;;;;;;;;;;;;;342952;28;1204;-79
2024/02/03 00:04:43;;;;;;;;;;;;;;;;;;344293;28;994;-79
2024/02/03 00:04:53;;;;;;;;;;;;;;;;;;342967;28;1326;-79
2024/02/03 00:05:04;;;;;;;;;;;;;;;;;;343002;28;970;-80
2024/02/03 00:05:14;;;;;;;;;;;;;;;;;;343497;28;1006;-79
2024/02/03 00:05:24;;;;;;;;;;;;;;;;;;341514;29;1241;-79
2024/02/03 00:05:35;;;;;;;;;;;;;;;;;;341706;29;838;-79
2024/02/03 00:05:45;;;;;;;;;;;;;;;;;;342036;28;1384;-79
2024/02/03 00:05:55;;;;;;;;;;;;;;;;;;341671;29;983;-79
2024/02/03 00:06:06;;;;;;;;;;;;;;;;;;342916;28;971;-79
2024/02/03 00:06:16;;;;;;;;;;;;;;;;;;341671;29;900;-79
2024/02/03 00:06:26;;;;;;;;;;;;;;;;;;341604;29;1312;-79
2024/02/03 00:06:37;;;;;;;;;;;;;;;;;;341607;29;1282;-79
2024/02/03 00:06:47;;;;;;;;;;;;;;;;;;342854;28;1268;-79
2024/02/03 00:06:57;;;;;;;;;;;;;;;;;;344329;28;1185;-80
2024/02/03 00:07:07;;;;;;;;;;;;;;;;;;344341;28;987;-79
2024/02/03 00:07:17;;;;;;;;;;;;;;;;;;344380;28;923;-79
2024/02/03 00:07:28;;;;;;;;;;;;;;;;;;342944;28;1244;-80
2024/02/03 00:07:38;;;;;;;;;;;;;;;;;;344317;28;951;-79
2024/02/03 00:07:48;;;;;;;;;;;;;;;;;;344230;28;1146;-80
2024/02/03 00:07:58;;;;;;;;;;;;;;;;;;342994;28;971;-79
2024/02/03 00:08:09;;;;;;;;;;;;;;;;;;342933;28;986;-79
2024/02/03 00:08:19;;;;;;;;;;;;;;;;;;342902;28;1038;-80
2024/02/03 00:08:29;;;;;;;;;;;;;;;;;;342877;28;1415;-79
2024/02/03 00:08:39;;;;;;;;;;;;;;;;;;344369;28;1033;-79
2024/02/03 00:08:51;;;;;;;;;;;;;;;;;;344299;28;1034;-79
2024/02/03 00:09:02;;;;;;;;;;;;;;;;;;341651;29;1003;-80
2024/02/03 00:09:12;;;;;;;;;;;;;;;;;;341481;29;1450;-80
2024/02/03 00:09:23;;;;;;;;;;;;;;;;;;341580;28;995;-80
2024/02/03 00:09:33;;;;;;;;;;;;;;;;;;342945;28;952;-80
2024/02/03 00:09:43;;;;;;;;;;;;;;;;;;344202;28;1183;-79
2024/02/03 00:09:53;;;;;;;;;;;;;;;;;;341561;28;1393;-80
2024/02/03 00:10:04;;;;;;;;;;;;;;;;;;342778;28;998;-79
2024/02/03 00:10:14;;;;;;;;;;;;;;;;;;341589;29;1174;-79
2024/02/03 00:10:24;;;;;;;;;;;;;;;;;;341695;29;971;-79
2024/02/03 00:10:34;;;;;;;;;;;;;;;;;;341561;28;1194;-80
2024/02/03 00:10:45;;;;;;;;;;;;;;;;;;341581;29;1002;-79
2024/02/03 00:10:55;;;;;;;;;;;;;;;;;;341724;29;967;-80
2024/02/03 00:11:09;;;;;;;;;;;;;;;;;;342926;28;1376;-79
2024/02/03 00:11:19;;;;;;;;;;;;;;;;;;340261;29;1503;-79
2024/02/03 00:11:29;;;;;;;;;;;;;;;;;;340378;29;881;-79
2024/02/03 00:11:39;;;;;;;;;;;;;;;;;;341509;28;1320;-79
2024/02/03 00:11:50;;;;;;;;;;;;;;;;;;342869;28;971;-79
2024/02/03 00:12:00;;;;;;;;;;;;;;;;;;341569;28;1513;-79
2024/02/03 00:12:11;;;;;;;;;;;;;;;;;;341710;29;1002;-79
2024/02/03 00:12:25;;;;;;;;;;;;;;;;;;341628;29;812;-79
2024/02/03 00:12:36;;;;;;;;;;;;;;;;;;342992;28;971;-79
2024/02/03 00:12:46;;;;;;;;;;;;;;;;;;342810;28;1343;-79
2024/02/03 00:12:56;;;;;;;;;;;;;;;;;;341649;29;975;-79
2024/02/03 00:13:06;;;;;;;;;;;;;;;;;;341579;29;911;-80
2024/02/03 00:13:16;;;;;;;;;;;;;;;;;;341640;29;982;-79
2024/02/03 00:13:27;;;;;;;;;;;;;;;;;;341462;29;1199;-79
2024/02/03 00:13:37;;;;;;;;;;;;;;;;;;341604;28;1204;-79
2024/02/03 00:13:47;;;;;;;;;;;;;;;;;;341541;28;1200;-79
2024/02/03 00:13:57;;;;;;;;;;;;;;;;;;341604;29;1344;-80
2024/02/03 00:14:08;;;;;;;;;;;;;;;;;;341500;29;975;-79
2024/02/03 00:14:18;;;;;;;;;;;;;;;;;;342869;28;1446;-79
2024/02/03 00:14:28;;;;;;;;;;;;;;;;;;341507;29;1470;-79
2024/02/03 00:14:38;;;;;;;;;;;;;;;;;;341669;29;1053;-79
2024/02/03 00:14:49;;;;;;;;;;;;;;;;;;342932;28;1014;-80
2024/02/03 00:14:59;;;;;;;;;;;;;;;;;;341820;28;1334;-80
2024/02/03 00:15:09;;;;;;;;;;;;;;;;;;342884;28;1185;-79
2024/02/03 00:15:21;;;;;;;;;;;;;;;;;;341606;29;972;-80
2024/02/03 00:15:31;;;;;;;;;;;;;;;;;;341697;29;971;-80
2024/02/03 00:15:41;;;;;;;;;;;;;;;;;;341600;29;1185;-80
2024/02/03 00:15:52;;;;;;;;;;;;;;;;;;342845;28;1293;-80
2024/02/03 00:16:02;;;;;;;;;;;;;;;;;;342935;28;1303;-79
2024/02/03 00:16:12;;;;;;;;;;;;;;;;;;342930;28;1082;-79
2024/02/03 00:16:23;;;;;;;;;;;;;;;;;;341634;29;1197;-79
2024/02/03 00:16:33;;;;;;;;;;;;;;;;;;341641;28;1123;-79
2024/02/03 00:16:44;;;;;;;;;;;;;;;;;;342942;28;959;-79
2024/02/03 00:16:54;;;;;;;;;;;;;;;;;;342986;28;1198;-79
2024/02/03 00:17:04;;;;;;;;;;;;;;;;;;342888;28;1173;-80
2024/02/03 00:17:14;;;;;;;;;;;;;;;;;;340240;29;1447;-80
2024/02/03 00:17:25;;;;;;;;;;;;;;;;;;341579;29;1244;-79
2024/02/03 00:17:35;;;;;;;;;;;;;;;;;;341659;29;1260;-80
2024/02/03 00:17:45;;;;;;;;;;;;;;;;;;340292;29;1281;-79
2024/02/03 00:17:55;;;;;;;;;;;;;;;;;;341553;29;1334;-80
2024/02/03 00:18:06;;;;;;;;;;;;;;;;;;341995;28;1435;-79
2024/02/03 00:18:16;;;;;;;;;;;;;;;;;;342815;28;1324;-79
2024/02/03 00:18:26;;;;;;;;;;;;;;;;;;341659;29;955;-79
2024/02/03 00:18:37;;;;;;;;;;;;;;;;;;341689;29;971;-79
2024/02/03 00:18:47;;;;;;;;;;;;;;;;;;341556;28;1025;-80
2024/02/03 00:18:57;;;;;;;;;;;;;;;;;;341655;29;1011;-80
2024/02/03 00:19:08;;;;;;;;;;;;;;;;;;342697;28;1348;-79
2024/02/03 00:19:18;;;;;;;;;;;;;;;;;;344315;28;1224;-80
2024/02/03 00:19:28;;;;;;;;;;;;;;;;;;344294;28;1438;-79
2024/02/03 00:19:39;;;;;;;;;;;;;;;;;;345569;28;1225;-79
2024/02/03 00:19:52;;;;;;;;;;;;;;;;;;345558;28;1097;-79
2024/02/03 00:20:02;;;;;;;;;;;;;;;;;;341547;29;1185;-79
2024/02/03 00:20:14;;;;;;;;;;;;;;;;;;342976;28;1041;-79
2024/02/03 00:20:25;;;;;;;;;;;;;;;;;;342923;28;998;-79
2024/02/03 00:20:35;;;;;;;;;;;;;;;;;;341652;29;1022;-79
2024/02/03 00:20:45;;;;;;;;;;;;;;;;;;341588;29;963;-79
2024/02/03 00:20:55;;;;;;;;;;;;;;;;;;341685;29;998;-79
2024/02/03 00:21:06;;;;;;;;;;;;;;;;;;342876;28;1214;-79
2024/02/03 00:21:16;;;;;;;;;;;;;;;;;;344327;28;903;-80
2024/02/03 00:21:26;;;;;;;;;;;;;;;;;;344108;28;1232;-79
2024/02/03 00:21:36;;;;;;;;;;;;;;;;;;344362;28;1054;-80
2024/02/03 00:21:47;;;;;;;;;;;;;;;;;;344298;28;1021;-80
2024/02/03 00:21:57;;;;;;;;;;;;;;;;;;343009;28;967;-79
2024/02/03 00:22:08;;;;;;;;;;;;;;;;;;342923;28;947;-79
2024/02/03 00:22:18;;;;;;;;;;;;;;;;;;342983;28;971;-80
2024/02/03 00:22:28;;;;;;;;;;;;;;;;;;341511;29;1177;-79
2024/02/03 00:22:38;;;;;;;;;;;;;;;;;;341665;29;951;-79
2024/02/03 00:22:52;;;;;;;;;;;;;;;;;;341664;29;1074;-79
2024/02/03 00:23:02;;;;;;;;;;;;;;;;;;341666;29;829;-80
2024/02/03 00:23:12;;;;;;;;;;;;;;;;;;342775;28;1291;-80
2024/02/03 00:23:22;;;;;;;;;;;;;;;;;;343041;28;935;-79
2024/02/03 00:23:33;;;;;;;;;;;;;;;;;;341505;29;1329;-79
2024/02/03 00:23:46;;;;;;;;;;;;;;;;;;342989;28;1333;-80
2024/02/03 00:23:56;;;;;;;;;;;;;;;;;;342825;28;995;-80
2024/02/03 00:24:06;;;;;;;;;;;;;;;;;;342826;28;1306;-79
2024/02/03 00:24:17;;;;;;;;;;;;;;;;;;345532;28;1876;-80
2024/02/03 00:24:27;;;;;;;;;;;;;;;;;;344227;28;1034;-80
2024/02/03 00:24:37;;;;;;;;;;;;;;;;;;345546;28;1445;-80
2024/02/03 00:24:48;;;;;;;;;;;;;;;;;;345578;28;1279;-80
2024/02/03 00:24:59;;;;;;;;;;;;;;;;;;345652;28;1042;-80
2024/02/03 00:25:09;;;;;;;;;;;;;;;;;;345718;28;1159;-79
2024/02/03 00:25:19;;;;;;;;;;;;;;;;;;345622;28;986;-79
2024/02/03 00:25:30;;;;;;;;;;;;;;;;;;345240;28;1473;-80
2024/02/03 00:25:40;;;;;;;;;;;;;;;;;;344328;28;983;-79
2024/02/03 00:25:51;;;;;;;;;;;;;;;;;;342016;28;1502;-79
2024/02/03 00:26:01;;;;;;;;;;;;;;;;;;342871;28;1239;-79
2024/02/03 00:26:11;;;;;;;;;;;;;;;;;;343691;28;1588;-80
2024/02/03 00:26:22;;;;;;;;;;;;;;;;;;344673;28;1283;-79
2024/02/03 00:26:32;;;;;;;;;;;;;;;;;;344170;28;1651;-80
2024/02/03 00:26:42;;;;;;;;;;;;;;;;;;344059;28;1326;-79
2024/02/03 00:26:53;;;;;;;;;;;;;;;;;;341403;29;1253;-80
2024/02/03 00:27:04;;;;;;;;;;;;;;;;;;341606;29;967;-80
2024/02/03 00:27:15;;;;;;;;;;;;;;;;;;341694;29;975;-80
2024/02/03 00:27:25;;;;;;;;;;;;;;;;;;341617;29;961;-80
2024/02/03 00:27:35;;;;;;;;;;;;;;;;;;342936;28;978;-80
2024/02/03 00:27:46;;;;;;;;;;;;;;;;;;342975;28;979;-80
2024/02/03 00:27:57;;;;;;;;;;;;;;;;;;344216;28;1497;-80
2024/02/03 00:28:07;;;;;;;;;;;;;;;;;;342889;28;950;-80
2024/02/03 00:28:17;;;;;;;;;;;;;;;;;;343009;28;1030;-80
2024/02/03 00:28:27;;;;;;;;;;;;;;;;;;345587;28;1189;-80
2024/02/03 00:28:38;;;;;;;;;;;;;;;;;;342913;28;1164;-79
2024/02/03 00:28:49;;;;;;;;;;;;;;;;;;341025;29;1743;-80
2024/02/03 00:28:59;;;;;;;;;;;;;;;;;;341633;29;979;-79
2024/02/03 00:29:10;;;;;;;;;;;;;;;;;;341488;29;1070;-80
2024/02/03 00:29:20;;;;;;;;;;;;;;;;;;341446;28;1198;-80
2024/02/03 00:29:30;;;;;;;;;;;;;;;;;;341523;29;956;-80
2024/02/03 00:29:41;;;;;;;;;;;;;;;;;;339416;29;1480;-80
2024/02/03 00:29:51;;;;;;;;;;;;;;;;;;341593;29;838;-79
2024/02/03 00:30:01;;;;;;;;;;;;;;;;;;341723;29;793;-80
2024/02/03 00:30:12;;;;;;;;;;;;;;;;;;341702;29;833;-79
2024/02/03 00:30:22;;;;;;;;;;;;;;;;;;342944;28;923;-80
2024/02/03 00:30:32;;;;;;;;;;;;;;;;;;341581;29;964;-79
2024/02/03 00:30:43;;;;;;;;;;;;;;;;;;342799;28;963;-79
2024/02/03 00:30:53;;;;;;;;;;;;;;;;;;342965;28;983;-79
2024/02/03 00:31:03;;;;;;;;;;;;;;;;;;342982;28;1088;-79
2024/02/03 00:31:15;;;;;;;;;;;;;;;;;;344879;28;1290;-79
2024/02/03 00:31:25;;;;;;;;;;;;;;;;;;345702;28;970;-80
2024/02/03 00:31:35;;;;;;;;;;;;;;;;;;345544;28;1592;-79
2024/02/03 00:31:46;;;;;;;;;;;;;;;;;;344205;28;1317;-79
2024/02/03 00:31:56;;;;;;;;;;;;;;;;;;342767;28;1427;-79
2024/02/03 00:32:06;;;;;;;;;;;;;;;;;;343025;28;930;-79
2024/02/03 00:32:17;;;;;;;;;;;;;;;;;;342647;28;1434;-79
2024/02/03 00:32:28;;;;;;;;;;;;;;;;;;344321;28;967;-79
2024/02/03 00:32:39;;;;;;;;;;;;;;;;;;345320;28;1570;-79
2024/02/03 00:32:49;;;;;;;;;;;;;;;;;;345081;28;927;-79
2024/02/03 00:32:59;;;;;;;;;;;;;;;;;;344225;28;1268;-80
2024/02/03 00:33:09;;;;;;;;;;;;;;;;;;342980;28;1185;-79
2024/02/03 00:33:20;;;;;;;;;;;;;;;;;;341636;29;859;-80
2024/02/03 00:33:30;;;;;;;;;;;;;;;;;;341637;28;938;-80
2024/02/03 00:33:41;;;;;;;;;;;;;;;;;;341549;29;768;-79
2024/02/03 00:33:51;;;;;;;;;;;;;;;;;;340269;29;1235;-80
2024/02/03 00:34:01;;;;;;;;;;;;;;;;;;341613;29;1546;-79
2024/02/03 00:34:11;;;;;;;;;;;;;;;;;;341571;29;1198;-79
2024/02/03 00:34:21;;;;;;;;;;;;;;;;;;340150;29;1331;-79
2024/02/03 00:34:32;;;;;;;;;;;;;;;;;;341544;29;1204;-80
2024/02/03 00:34:44;;;;;;;;;;;;;;;;;;341544;29;1475;-79
2024/02/03 00:34:54;;;;;;;;;;;;;;;;;;341592;29;1514;-79
2024/02/03 00:35:05;;;;;;;;;;;;;;;;;;342861;28;1325;-79
2024/02/03 00:35:15;;;;;;;;;;;;;;;;;;342764;28;1363;-79
2024/02/03 00:35:25;;;;;;;;;;;;;;;;;;342913;28;1272;-79
2024/02/03 00:35:35;;;;;;;;;;;;;;;;;;342903;28;1014;-80
2024/02/03 00:35:46;;;;;;;;;;;;;;;;;;342912;28;1317;-79
2024/02/03 00:35:56;;;;;;;;;;;;;;;;;;341448;29;1332;-79
2024/02/03 00:36:07;;;;;;;;;;;;;;;;;;343426;28;1319;-80
2024/02/03 00:36:23;;;;;;;;;;;;;;;;;;343172;28;1370;-79
2024/02/03 00:36:33;;;;;;;;;;;;;;;;;;342925;28;999;-79
2024/02/03 00:36:44;;;;;;;;;;;;;;;;;;342853;28;1273;-80
2024/02/03 00:36:54;;;;;;;;;;;;;;;;;;340267;29;924;-80
2024/02/03 00:37:04;;;;;;;;;;;;;;;;;;342943;28;1219;-80
2024/02/03 00:37:14;;;;;;;;;;;;;;;;;;341467;29;1022;-79
2024/02/03 00:37:25;;;;;;;;;;;;;;;;;;341638;29;1030;-79
2024/02/03 00:37:35;;;;;;;;;;;;;;;;;;341609;29;1194;-79
2024/02/03 00:37:46;;;;;;;;;;;;;;;;;;344112;28;1583;-79
2024/02/03 00:37:56;;;;;;;;;;;;;;;;;;343355;28;1452;-79
2024/02/03 00:38:06;;;;;;;;;;;;;;;;;;340324;29;1070;-80
2024/02/03 00:38:16;;;;;;;;;;;;;;;;;;340201;29;1491;-80
2024/02/03 00:38:27;;;;;;;;;;;;;;;;;;341668;28;1013;-79
2024/02/03 00:38:37;;;;;;;;;;;;;;;;;;342562;28;1331;-79
2024/02/03 00:38:47;;;;;;;;;;;;;;;;;;341431;29;1521;-80
2024/02/03 00:38:58;;;;;;;;;;;;;;;;;;342079;28;1392;-79
2024/02/03 00:39:09;;;;;;;;;;;;;;;;;;342987;28;1346;-80
2024/02/03 00:39:19;;;;;;;;;;;;;;;;;;342033;28;991;-80
2024/02/03 00:39:29;;;;;;;;;;;;;;;;;;341594;28;1193;-80
2024/02/03 00:39:40;;;;;;;;;;;;;;;;;;342915;28;1307;-79
2024/02/03 00:39:50;;;;;;;;;;;;;;;;;;342903;28;1294;-79
2024/02/03 00:40:02;;;;;;;;;;;;;;;;;;341509;29;1316;-79
2024/02/03 00:40:12;;;;;;;;;;;;;;;;;;340288;29;813;-79
2024/02/03 00:40:23;;;;;;;;;;;;;;;;;;341623;29;958;-80
2024/02/03 00:40:33;;;;;;;;;;;;;;;;;;341622;29;899;-80
2024/02/03 00:40:43;;;;;;;;;;;;;;;;;;344217;28;1213;-79
2024/02/03 00:40:54;;;;;;;;;;;;;;;;;;343364;28;1139;-79
2024/02/03 00:41:04;;;;;;;;;;;;;;;;;;344233;28;1001;-80
2024/02/03 00:41:14;;;;;;;;;;;;;;;;;;344315;28;1002;-80
2024/02/03 00:41:24;;;;;;;;;;;;;;;;;;342825;28;958;-79
2024/02/03 00:41:35;;;;;;;;;;;;;;;;;;342980;28;978;-79
2024/02/03 00:41:45;;;;;;;;;;;;;;;;;;343023;28;970;-80
2024/02/03 00:41:55;;;;;;;;;;;;;;;;;;341549;29;1348;-80
2024/02/03 00:42:05;;;;;;;;;;;;;;;;;;343020;28;789;-80
2024/02/03 00:42:17;;;;;;;;;;;;;;;;;;343016;28;947;-80
2024/02/03 00:42:28;;;;;;;;;;;;;;;;;;341447;29;1366;-79
2024/02/03 00:42:38;;;;;;;;;;;;;;;;;;340278;28;1034;-79
2024/02/03 00:42:50;;;;;;;;;;;;;;;;;;341432;29;1621;-79
2024/02/03 00:43:00;;;;;;;;;;;;;;;;;;338973;29;1194;-80
2024/02/03 00:43:10;;;;;;;;;;;;;;;;;;340200;29;836;-80
2024/02/03 00:43:20;;;;;;;;;;;;;;;;;;341545;28;1229;-80
2024/02/03 00:43:31;;;;;;;;;;;;;;;;;;342930;28;1184;-79
2024/02/03 00:43:42;;;;;;;;;;;;;;;;;;342964;28;1188;-79
2024/02/03 00:43:52;;;;;;;;;;;;;;;;;;341585;29;1334;-80
2024/02/03 00:44:03;;;;;;;;;;;;;;;;;;341806;28;1322;-80
2024/02/03 00:44:15;;;;;;;;;;;;;;;;;;341743;29;1880;-80
2024/02/03 00:44:25;;;;;;;;;;;;;;;;;;343185;28;935;-80
2024/02/03 00:44:36;;;;;;;;;;;;;;;;;;341918;29;1025;-80
2024/02/03 00:44:46;;;;;;;;;;;;;;;;;;343119;28;974;-80
2024/02/03 00:44:56;;;;;;;;;;;;;;;;;;344471;28;808;-80
2024/02/03 00:45:07;;;;;;;;;;;;;;;;;;343016;28;1498;-80
2024/02/03 00:45:17;;;;;;;;;;;;;;;;;;343051;28;1533;-79
2024/02/03 00:45:27;;;;;;;;;;;;;;;;;;341891;29;1342;-80
2024/02/03 00:45:37;;;;;;;;;;;;;;;;;;341889;29;995;-80
2024/02/03 00:45:48;;;;;;;;;;;;;;;;;;341068;29;1196;-79
2024/02/03 00:45:58;;;;;;;;;;;;;;;;;;341796;29;1105;-80
2024/02/03 00:46:11;;;;;;;;;;;;;;;;;;343060;28;1397;-80
2024/02/03 00:46:21;;;;;;;;;;;;;;;;;;343182;28;1367;-80
2024/02/03 00:46:32;;;;;;;;;;;;;;;;;;341891;29;884;-80
2024/02/03 00:46:42;;;;;;;;;;;;;;;;;;341062;29;1324;-79
2024/02/03 00:46:52;;;;;;;;;;;;;;;;;;341774;29;1330;-80
2024/02/03 00:47:02;;;;;;;;;;;;;;;;;;341887;28;986;-79
2024/02/03 00:47:13;;;;;;;;;;;;;;;;;;341911;29;908;-80
2024/02/03 00:47:23;;;;;;;;;;;;;;;;;;343013;28;987;-79
2024/02/03 00:47:33;;;;;;;;;;;;;;;;;;343143;28;1002;-80
2024/02/03 00:47:43;;;;;;;;;;;;;;;;;;342302;28;1395;-79
2024/02/03 00:47:54;;;;;;;;;;;;;;;;;;343207;28;963;-80
2024/02/03 00:48:04;;;;;;;;;;;;;;;;;;343216;28;966;-80
2024/02/03 00:48:14;;;;;;;;;;;;;;;;;;341865;28;892;-80
2024/02/03 00:48:24;;;;;;;;;;;;;;;;;;341897;29;1019;-79
2024/02/03 00:48:35;;;;;;;;;;;;;;;;;;341922;29;1022;-79
2024/02/03 00:48:45;;;;;;;;;;;;;;;;;;341829;29;1538;-79
2024/02/03 00:48:56;;;;;;;;;;;;;;;;;;341810;28;1017;-80
2024/02/03 00:49:06;;;;;;;;;;;;;;;;;;342958;28;978;-80
2024/02/03 00:49:16;;;;;;;;;;;;;;;;;;343205;28;971;-80
2024/02/03 00:49:26;;;;;;;;;;;;;;;;;;344494;28;959;-79
2024/02/03 00:49:37;;;;;;;;;;;;;;;;;;344510;28;1013;-80
2024/02/03 00:49:47;;;;;;;;;;;;;;;;;;343356;28;1505;-80
2024/02/03 00:49:57;;;;;;;;;;;;;;;;;;341830;29;1197;-80
2024/02/03 00:50:14;;;;;;;;;;;;;;;;;;341692;29;1522;-79
2024/02/03 00:50:24;;;;;;;;;;;;;;;;;;341762;29;1435;-80
2024/02/03 00:50:34;;;;;;;;;;;;;;;;;;341841;29;1015;-80
2024/02/03 00:50:45;;;;;;;;;;;;;;;;;;340244;29;1217;-79
2024/02/03 00:50:55;;;;;;;;;;;;;;;;;;341467;29;1379;-80
2024/02/03 00:51:09;;;;;;;;;;;;;;;;;;341019;29;1446;-80
2024/02/03 00:51:19;;;;;;;;;;;;;;;;;;343082;28;1316;-80
2024/02/03 00:51:30;;;;;;;;;;;;;;;;;;343206;28;1456;-79
2024/02/03 00:51:40;;;;;;;;;;;;;;;;;;341848;29;955;-80
2024/02/03 00:51:50;;;;;;;;;;;;;;;;;;341903;29;959;-79
2024/02/03 00:52:00;;;;;;;;;;;;;;;;;;343103;28;1323;-80
2024/02/03 00:52:11;;;;;;;;;;;;;;;;;;344374;28;1524;-80
2024/02/03 00:52:21;;;;;;;;;;;;;;;;;;343191;28;1242;-80
2024/02/03 00:52:31;;;;;;;;;;;;;;;;;;343090;28;1377;-80
2024/02/03 00:52:42;;;;;;;;;;;;;;;;;;343128;28;1185;-80
2024/02/03 00:52:52;;;;;;;;;;;;;;;;;;343146;28;975;-80
2024/02/03 00:53:03;;;;;;;;;;;;;;;;;;343062;28;1247;-80
2024/02/03 00:53:13;;;;;;;;;;;;;;;;;;343223;28;1043;-80
2024/02/03 00:53:23;;;;;;;;;;;;;;;;;;343233;28;1022;-80
2024/02/03 00:53:33;;;;;;;;;;;;;;;;;;344284;28;1619;-79
2024/02/03 00:53:44;;;;;;;;;;;;;;;;;;344533;28;1358;-80
2024/02/03 00:53:54;;;;;;;;;;;;;;;;;;344506;28;939;-80
2024/02/03 00:54:04;;;;;;;;;;;;;;;;;;344345;28;1311;-80
2024/02/03 00:54:14;;;;;;;;;;;;;;;;;;343156;28;1179;-80
2024/02/03 00:54:25;;;;;;;;;;;;;;;;;;343100;28;1317;-80
2024/02/03 00:54:35;;;;;;;;;;;;;;;;;;343238;28;958;-80
2024/02/03 00:54:45;;;;;;;;;;;;;;;;;;343223;28;725;-80
2024/02/03 00:54:55;;;;;;;;;;;;;;;;;;343254;28;800;-80
2024/02/03 00:55:06;;;;;;;;;;;;;;;;;;343022;28;1455;-80
2024/02/03 00:55:16;;;;;;;;;;;;;;;;;;343160;28;1016;-79
2024/02/03 00:55:26;;;;;;;;;;;;;;;;;;344134;28;987;-79
2024/02/03 00:55:37;;;;;;;;;;;;;;;;;;343524;28;1434;-79
2024/02/03 00:55:47;;;;;;;;;;;;;;;;;;344399;28;1477;-79
2024/02/03 00:55:59;;;;;;;;;;;;;;;;;;344485;28;1045;-80
2024/02/03 00:56:10;;;;;;;;;;;;;;;;;;344475;28;1323;-80
2024/02/03 00:56:20;;;;;;;;;;;;;;;;;;345456;28;1434;-80
2024/02/03 00:56:31;;;;;;;;;;;;;;;;;;343066;28;1442;-80
2024/02/03 00:56:41;;;;;;;;;;;;;;;;;;343415;28;1155;-80
2024/02/03 00:56:51;;;;;;;;;;;;;;;;;;344351;28;1450;-79
2024/02/03 00:57:02;;;;;;;;;;;;;;;;;;344303;28;1347;-80
2024/02/03 00:57:12;;;;;;;;;;;;;;;;;;344113;28;1225;-80
2024/02/03 00:57:22;;;;;;;;;;;;;;;;;;344611;28;986;-79
2024/02/03 00:57:33;;;;;;;;;;;;;;;;;;343767;28;1984;-79
2024/02/03 00:57:43;;;;;;;;;;;;;;;;;;340556;29;932;-79
2024/02/03 00:57:53;;;;;;;;;;;;;;;;;;341715;29;1601;-79
2024/02/03 00:58:04;;;;;;;;;;;;;;;;;;343153;28;1230;-80
2024/02/03 00:58:15;;;;;;;;;;;;;;;;;;342932;28;1471;-79
2024/02/03 00:58:25;;;;;;;;;;;;;;;;;;341748;29;1194;-80
2024/02/03 00:58:35;;;;;;;;;;;;;;;;;;341892;29;896;-80
2024/02/03 00:58:46;;;;;;;;;;;;;;;;;;342343;28;979;-80
2024/02/03 00:58:56;;;;;;;;;;;;;;;;;;340461;29;1079;-79
2024/02/03 00:59:06;;;;;;;;;;;;;;;;;;340519;29;983;-80
2024/02/03 00:59:16;;;;;;;;;;;;;;;;;;343167;28;1470;-80
2024/02/03 00:59:27;;;;;;;;;;;;;;;;;;343240;28;1022;-80
2024/02/03 00:59:37;;;;;;;;;;;;;;;;;;343224;28;1246;-79
2024/02/03 00:59:47;;;;;;;;;;;;;;;;;;343293;28;867;-80
2024/02/03 00:59:57;;;;;;;;;;;;;;;;;;343135;28;1200;-80
2024/02/03 01:00:09;;;;;;;;;;;;;;;;;;341880;28;832;-80
2024/02/03 01:00:23;;;;;;;;;;;;;;;;;;341999;28;1118;-79
2024/02/03 01:00:33;;;;;;;;;;;;;;;;;;341832;29;1046;-80
2024/02/03 01:00:43;;;;;;;;;;;;;;;;;;342226;28;1471;-79
2024/02/03 01:00:53;;;;;;;;;;;;;;;;;;343265;28;1026;-80
2024/02/03 01:01:04;;;;;;;;;;;;;;;;;;343291;28;805;-80
2024/02/03 01:01:14;;;;;;;;;;;;;;;;;;342219;28;1589;-80
2024/02/03 01:01:24;;;;;;;;;;;;;;;;;;343051;28;1209;-80
2024/02/03 01:01:35;;;;;;;;;;;;;;;;;;343674;28;1457;-80
2024/02/03 01:01:47;;;;;;;;;;;;;;;;;;344516;28;1266;-79
2024/02/03 01:01:58;;;;;;;;;;;;;;;;;;344642;28;1359;-79
2024/02/03 01:02:08;;;;;;;;;;;;;;;;;;343147;28;855;-80
2024/02/03 01:02:18;;;;;;;;;;;;;;;;;;343287;28;955;-79
2024/02/03 01:02:28;;;;;;;;;;;;;;;;;;345900;28;842;-79
2024/02/03 01:02:41;;;;;;;;;;;;;;;;;;343160;28;1195;-80
2024/02/03 01:02:51;;;;;;;;;;;;;;;;;;343048;28;1288;-79
2024/02/03 01:03:01;;;;;;;;;;;;;;;;;;343222;28;1316;-80
2024/02/03 01:03:12;;;;;;;;;;;;;;;;;;343178;28;1049;-80
2024/02/03 01:03:24;;;;;;;;;;;;;;;;;;343173;28;1041;-80
2024/02/03 01:03:35;;;;;;;;;;;;;;;;;;341615;29;1465;-80
2024/02/03 01:03:45;;;;;;;;;;;;;;;;;;340437;29;1346;-80
2024/02/03 01:03:55;;;;;;;;;;;;;;;;;;341800;29;1308;-79
2024/02/03 01:04:05;;;;;;;;;;;;;;;;;;341894;29;851;-80
2024/02/03 01:04:16;;;;;;;;;;;;;;;;;;342656;28;1981;-79
2024/02/03 01:04:26;;;;;;;;;;;;;;;;;;343173;28;1026;-80
2024/02/03 01:04:36;;;;;;;;;;;;;;;;;;343067;28;1407;-80
2024/02/03 01:04:46;;;;;;;;;;;;;;;;;;343230;28;1077;-80
2024/02/03 01:04:57;;;;;;;;;;;;;;;;;;343178;28;994;-80
2024/02/03 01:05:07;;;;;;;;;;;;;;;;;;341830;29;1296;-79
2024/02/03 01:05:17;;;;;;;;;;;;;;;;;;341720;29;1387;-80
2024/02/03 01:05:27;;;;;;;;;;;;;;;;;;341883;29;951;-79
2024/02/03 01:05:39;;;;;;;;;;;;;;;;;;343539;28;1420;-79
2024/02/03 01:05:49;;;;;;;;;;;;;;;;;;343220;28;899;-79
2024/02/03 01:05:59;;;;;;;;;;;;;;;;;;343173;28;796;-79
2024/02/03 01:06:10;;;;;;;;;;;;;;;;;;343403;28;1335;-79
2024/02/03 01:06:20;;;;;;;;;;;;;;;;;;345515;28;1385;-79
2024/02/03 01:06:31;;;;;;;;;;;;;;;;;;344459;28;1297;-79
2024/02/03 01:06:41;;;;;;;;;;;;;;;;;;344507;28;958;-80
2024/02/03 01:06:54;;;;;;;;;;;;;;;;;;340442;29;1308;-79
2024/02/03 01:07:06;;;;;;;;;;;;;;;;;;340585;29;964;-80
2024/02/03 01:07:17;;;;;;;;;;;;;;;;;;341851;29;900;-80
2024/02/03 01:07:27;;;;;;;;;;;;;;;;;;343148;28;869;-79
2024/02/03 01:07:37;;;;;;;;;;;;;;;;;;343226;28;840;-79
2024/02/03 01:07:48;;;;;;;;;;;;;;;;;;344555;28;1017;-80
2024/02/03 01:07:58;;;;;;;;;;;;;;;;;;343129;28;1181;-79
2024/02/03 01:08:08;;;;;;;;;;;;;;;;;;341759;29;1225;-79
2024/02/03 01:08:19;;;;;;;;;;;;;;;;;;342841;28;1398;-79
2024/02/03 01:08:29;;;;;;;;;;;;;;;;;;344216;28;1158;-80
2024/02/03 01:08:39;;;;;;;;;;;;;;;;;;343849;28;1514;-79
2024/02/03 01:08:50;;;;;;;;;;;;;;;;;;344502;28;908;-80
2024/02/03 01:09:00;;;;;;;;;;;;;;;;;;344613;28;894;-80
2024/02/03 01:09:10;;;;;;;;;;;;;;;;;;343031;28;1287;-80
2024/02/03 01:09:21;;;;;;;;;;;;;;;;;;343134;28;1342;-80
2024/02/03 01:09:31;;;;;;;;;;;;;;;;;;343224;28;991;-80
2024/02/03 01:09:41;;;;;;;;;;;;;;;;;;343240;28;836;-80
2024/02/03 01:09:52;;;;;;;;;;;;;;;;;;343161;28;1038;-79
2024/02/03 01:10:02;;;;;;;;;;;;;;;;;;344540;28;887;-79
2024/02/03 01:10:12;;;;;;;;;;;;;;;;;;340367;29;1198;-79
2024/02/03 01:10:22;;;;;;;;;;;;;;;;;;340595;29;959;-79
2024/02/03 01:10:33;;;;;;;;;;;;;;;;;;340513;29;1019;-80
2024/02/03 01:10:43;;;;;;;;;;;;;;;;;;341856;29;1022;-80
2024/02/03 01:10:53;;;;;;;;;;;;;;;;;;341783;29;1074;-80
2024/02/03 01:11:03;;;;;;;;;;;;;;;;;;341839;29;1069;-80
2024/02/03 01:11:14;;;;;;;;;;;;;;;;;;341818;29;891;-79
2024/02/03 01:11:24;;;;;;;;;;;;;;;;;;341788;29;1034;-79
2024/02/03 01:11:35;;;;;;;;;;;;;;;;;;341835;29;1013;-80
2024/02/03 01:11:45;;;;;;;;;;;;;;;;;;345160;28;1209;-80
2024/02/03 01:11:55;;;;;;;;;;;;;;;;;;345892;28;848;-79
2024/02/03 01:12:06;;;;;;;;;;;;;;;;;;343053;28;1577;-80
2024/02/03 01:12:16;;;;;;;;;;;;;;;;;;343056;28;1260;-79
2024/02/03 01:12:27;;;;;;;;;;;;;;;;;;340449;28;1316;-80
2024/02/03 01:12:37;;;;;;;;;;;;;;;;;;341058;29;1466;-80
2024/02/03 01:12:47;;;;;;;;;;;;;;;;;;343177;28;971;-79
2024/02/03 01:12:57;;;;;;;;;;;;;;;;;;341592;29;1455;-79
2024/02/03 01:13:10;;;;;;;;;;;;;;;;;;341789;29;1312;-80
2024/02/03 01:13:20;;;;;;;;;;;;;;;;;;341656;29;1045;-80
2024/02/03 01:13:31;;;;;;;;;;;;;;;;;;341851;29;979;-80
2024/02/03 01:13:42;;;;;;;;;;;;;;;;;;341836;29;920;-80
2024/02/03 01:13:53;;;;;;;;;;;;;;;;;;343117;28;1114;-80
2024/02/03 01:14:03;;;;;;;;;;;;;;;;;;342979;28;1316;-79
2024/02/03 01:14:13;;;;;;;;;;;;;;;;;;345779;28;1293;-80
2024/02/03 01:14:23;;;;;;;;;;;;;;;;;;345861;28;970;-80
2024/02/03 01:14:33;;;;;;;;;;;;;;;;;;343188;28;1357;-79
2024/02/03 01:14:45;;;;;;;;;;;;;;;;;;344451;28;1226;-80